createdAt,value
2019-06-15T00:00:29.401Z,24.95
2019-06-15T00:02:57.841Z,25.05
2019-06-15T00:05:26.274Z,24.95
2019-06-15T00:07:54.815Z,24.99
2019-06-15T00:10:23.504Z,24.69
2019-06-15T00:12:51.962Z,24.72
2019-06-15T00:15:20.415Z,24.71
2019-06-15T00:17:48.901Z,24.90
2019-06-15T00:20:17.522Z,24.93
2019-06-15T00:22:45.973Z,24.91
2019-06-15T00:25:14.721Z,24.94
2019-06-15T00:27:43.172Z,24.80
2019-06-15T00:30:11.958Z,24.77
2019-06-15T00:32:40.426Z,24.85
2019-06-15T00:35:10.233Z,24.94
2019-06-15T00:37:38.702Z,24.89
2019-06-15T00:40:08.008Z,24.73
2019-06-15T00:42:36.478Z,24.68
2019-06-15T00:45:05.967Z,24.60
2019-06-15T00:47:34.442Z,24.59
2019-06-15T00:50:02.969Z,24.61
2019-06-15T00:52:31.446Z,24.63
2019-06-15T00:54:59.905Z,24.66
2019-06-15T00:57:28.447Z,24.67
2019-06-15T00:59:56.921Z,24.66
2019-06-15T01:02:25.350Z,24.73
2019-06-15T01:04:53.821Z,24.60
2019-06-15T01:07:22.262Z,24.63
2019-06-15T01:09:50.727Z,24.60
2019-06-15T01:12:19.178Z,24.54
2019-06-15T01:14:47.649Z,24.54
2019-06-15T01:17:16.140Z,24.47
2019-06-15T01:19:44.585Z,24.40
2019-06-15T01:22:13.059Z,24.32
2019-06-15T01:24:41.518Z,24.22
2019-06-15T01:27:09.964Z,24.26
2019-06-15T01:29:38.456Z,24.41
2019-06-15T01:32:06.892Z,24.23
2019-06-15T01:34:35.360Z,24.30
2019-06-15T01:37:03.933Z,24.26
2019-06-15T01:39:32.880Z,24.17
2019-06-15T01:42:01.345Z,24.17
2019-06-15T01:44:29.782Z,24.29
2019-06-15T01:46:58.268Z,24.22
2019-06-15T01:49:26.773Z,24.21
2019-06-15T01:51:55.220Z,24.11
2019-06-15T01:54:23.688Z,24.17
2019-06-15T01:56:52.135Z,24.28
2019-06-15T01:59:20.590Z,24.25
2019-06-15T02:01:49.072Z,24.08
2019-06-15T02:04:17.532Z,24.17
2019-06-15T02:06:46.138Z,24.04
2019-06-15T02:09:14.710Z,24.06
2019-06-15T02:11:43.161Z,23.89
2019-06-15T02:14:11.634Z,23.96
2019-06-15T02:16:40.081Z,24.01
2019-06-15T02:19:08.525Z,24.11
2019-06-15T02:21:37.198Z,24.24
2019-06-15T02:24:06.281Z,24.23
2019-06-15T02:26:34.735Z,24.31
2019-06-15T02:29:03.198Z,24.10
2019-06-15T02:31:31.700Z,24.13
2019-06-15T02:34:00.132Z,24.21
2019-06-15T02:36:28.612Z,24.19
2019-06-15T02:38:57.077Z,24.24
2019-06-15T02:41:25.507Z,24.19
2019-06-15T02:43:53.970Z,24.12
2019-06-15T02:46:26.254Z,23.90
2019-06-15T02:48:52.963Z,23.93
2019-06-15T02:51:21.590Z,23.85
2019-06-15T02:53:50.494Z,23.93
2019-06-15T02:56:18.964Z,23.83
2019-06-15T02:58:47.415Z,23.76
2019-06-15T03:01:15.962Z,23.70
2019-06-15T03:03:44.421Z,23.47
2019-06-15T03:06:13.151Z,23.39
2019-06-15T03:08:41.771Z,23.30
2019-06-15T03:11:10.249Z,23.31
2019-06-15T03:13:38.691Z,23.30
2019-06-15T03:16:07.355Z,23.16
2019-06-15T03:18:35.800Z,23.02
2019-06-15T03:21:04.300Z,22.78
2019-06-15T03:23:32.767Z,22.84
2019-06-15T03:26:05.533Z,22.89
2019-06-15T03:28:31.424Z,22.93
2019-06-15T03:30:59.865Z,22.85
2019-06-15T03:33:28.365Z,23.04
2019-06-15T03:35:56.828Z,22.93
2019-06-15T03:38:25.319Z,23.02
2019-06-15T03:40:53.776Z,23.07
2019-06-15T03:43:22.217Z,23.28
2019-06-15T03:45:50.684Z,23.29
2019-06-15T03:48:19.126Z,23.22
2019-06-15T03:50:47.603Z,23.24
2019-06-15T03:53:16.061Z,23.27
2019-06-15T03:55:44.519Z,23.30
2019-06-15T03:58:12.958Z,23.19
2019-06-15T04:00:49.545Z,23.22
2019-06-15T04:03:18.161Z,23.27
2019-06-15T04:05:46.623Z,23.26
2019-06-15T04:08:15.257Z,23.35
2019-06-15T04:10:43.718Z,23.26
2019-06-15T04:13:12.285Z,23.28
2019-06-15T04:15:40.721Z,23.25
2019-06-15T04:18:09.178Z,23.18
2019-06-15T04:20:37.639Z,23.37
2019-06-15T04:23:06.128Z,23.26
2019-06-15T04:25:34.616Z,23.27
2019-06-15T04:28:03.081Z,23.36
2019-06-15T04:30:31.557Z,23.41
2019-06-15T04:33:00.029Z,23.43
2019-06-15T04:35:28.478Z,23.57
2019-06-15T04:37:56.920Z,23.54
2019-06-15T04:40:25.403Z,23.44
2019-06-15T04:42:53.816Z,23.45
2019-06-15T04:45:22.285Z,23.55
2019-06-15T04:47:50.731Z,23.56
2019-06-15T04:50:19.207Z,23.78
2019-06-15T04:52:47.647Z,23.70
2019-06-15T04:55:16.270Z,23.73
2019-06-15T04:57:44.828Z,23.93
2019-06-15T05:00:13.746Z,24.02
2019-06-15T05:02:42.196Z,24.21
2019-06-15T05:05:10.752Z,24.37
2019-06-15T05:07:39.226Z,24.48
2019-06-15T05:10:07.684Z,24.43
2019-06-15T05:12:36.146Z,24.40
2019-06-15T05:15:06.302Z,24.51
2019-06-15T05:17:34.755Z,24.50
2019-06-15T05:20:03.906Z,24.57
2019-06-15T05:22:32.354Z,24.57
2019-06-15T05:25:00.816Z,24.76
2019-06-15T05:27:29.250Z,24.89
2019-06-15T05:29:57.706Z,24.91
2019-06-15T05:32:26.349Z,24.96
2019-06-15T05:34:54.827Z,25.06
2019-06-15T05:37:23.290Z,24.95
2019-06-15T05:39:51.748Z,24.75
2019-06-15T05:42:20.231Z,24.72
2019-06-15T05:44:48.677Z,24.89
2019-06-15T05:47:17.156Z,24.77
2019-06-15T05:49:45.592Z,24.81
2019-06-15T05:52:14.078Z,24.90
2019-06-15T05:54:42.549Z,24.84
2019-06-15T05:57:21.281Z,24.95
2019-06-15T05:59:41.215Z,25.24
2019-06-15T06:02:09.695Z,25.55
2019-06-15T06:04:38.155Z,25.48
2019-06-15T06:07:06.634Z,25.68
2019-06-15T06:09:35.096Z,25.90
2019-06-15T06:12:03.544Z,25.93
2019-06-15T06:14:32.083Z,26.16
2019-06-15T06:17:00.524Z,25.85
2019-06-15T06:19:28.953Z,25.82
2019-06-15T06:21:58.326Z,26.09
2019-06-15T06:24:26.888Z,26.33
2019-06-15T06:26:55.408Z,26.52
2019-06-15T06:29:23.909Z,26.16
2019-06-15T06:31:52.368Z,26.37
2019-06-15T06:34:20.847Z,26.35
2019-06-15T06:36:49.288Z,26.70
2019-06-15T06:39:17.753Z,26.58
2019-06-15T06:41:46.213Z,26.42
2019-06-15T06:44:14.672Z,26.61
2019-06-15T06:46:43.119Z,26.79
2019-06-15T06:49:11.564Z,26.52
2019-06-15T06:51:40.203Z,26.49
2019-06-15T06:54:08.716Z,27.06
2019-06-15T06:56:37.171Z,27.24
2019-06-15T06:59:05.636Z,27.38
2019-06-15T07:01:34.127Z,27.59
2019-06-15T07:04:02.876Z,27.81
2019-06-15T07:06:31.320Z,28.09
2019-06-15T07:08:59.886Z,27.65
2019-06-15T07:11:28.328Z,27.80
2019-06-15T07:13:56.812Z,27.99
2019-06-15T07:16:25.229Z,27.86
2019-06-15T07:18:53.689Z,27.76
2019-06-15T07:21:22.146Z,27.96
2019-06-15T07:23:50.683Z,27.70
2019-06-15T07:26:19.120Z,27.78
2019-06-15T07:28:47.675Z,27.96
2019-06-15T07:31:17.646Z,28.24
2019-06-15T07:33:48.715Z,28.13
2019-06-15T07:36:17.173Z,28.09
2019-06-15T07:38:45.625Z,28.29
2019-06-15T07:41:14.057Z,28.19
2019-06-15T07:43:42.531Z,27.73
2019-06-15T07:46:10.964Z,27.98
2019-06-15T07:48:39.452Z,27.83
2019-06-15T07:51:07.901Z,28.14
2019-06-15T07:53:36.402Z,28.49
2019-06-15T07:56:04.856Z,28.62
2019-06-15T07:58:33.323Z,28.93
2019-06-15T08:01:01.818Z,28.95
2019-06-15T08:03:30.287Z,28.73
2019-06-15T08:05:58.762Z,29.10
2019-06-15T08:08:27.199Z,28.77
2019-06-15T08:10:55.648Z,29.00
2019-06-15T08:13:24.120Z,28.69
2019-06-15T08:15:52.571Z,28.53
2019-06-15T08:18:21.017Z,28.96
2019-06-15T08:20:49.470Z,29.30
2019-06-15T08:23:17.918Z,29.19
2019-06-15T08:25:46.393Z,29.33
2019-06-15T08:28:14.890Z,29.45
2019-06-15T08:30:44.298Z,28.86
2019-06-15T08:33:12.938Z,29.30
2019-06-15T08:35:41.455Z,29.51
2019-06-15T08:38:09.923Z,29.67
2019-06-15T08:40:38.406Z,29.63
2019-06-15T08:43:06.862Z,29.69
2019-06-15T08:45:35.316Z,29.67
2019-06-15T08:48:03.784Z,30.02
2019-06-15T08:50:32.261Z,29.72
2019-06-15T08:53:00.714Z,29.67
2019-06-15T08:55:29.182Z,29.84
2019-06-15T08:57:57.671Z,29.82
2019-06-15T09:00:26.801Z,29.68
2019-06-15T09:02:55.265Z,29.73
2019-06-15T09:05:23.748Z,29.80
2019-06-15T09:07:52.204Z,30.09
2019-06-15T09:10:21.012Z,30.34
2019-06-15T09:12:49.470Z,30.15
2019-06-15T09:15:20.979Z,30.18
2019-06-15T09:17:49.438Z,30.23
2019-06-15T09:20:18.044Z,30.25
2019-06-15T09:22:46.530Z,30.07
2019-06-15T09:25:14.968Z,30.09
2019-06-15T09:27:43.420Z,30.28
2019-06-15T09:30:12.240Z,30.19
2019-06-15T09:32:42.215Z,30.04
2019-06-15T09:35:10.888Z,30.14
2019-06-15T09:37:39.574Z,30.33
2019-06-15T09:40:08.462Z,30.36
2019-06-15T09:42:36.945Z,30.68
2019-06-15T09:45:08.661Z,30.79
2019-06-15T09:47:37.114Z,30.61
2019-06-15T09:50:07.141Z,30.71
2019-06-15T09:52:35.648Z,31.01
2019-06-15T09:55:06.006Z,30.95
2019-06-15T09:57:34.469Z,31.28
2019-06-15T10:00:04.024Z,31.37
2019-06-15T10:02:32.520Z,31.41
2019-06-15T10:05:01.006Z,31.89
2019-06-15T10:07:29.444Z,31.86
2019-06-15T10:09:57.897Z,32.17
2019-06-15T10:12:26.350Z,32.82
2019-06-15T10:14:54.840Z,32.99
2019-06-15T10:17:23.296Z,33.25
2019-06-15T10:19:53.417Z,33.40
2019-06-15T10:22:21.935Z,33.21
2019-06-15T10:24:50.403Z,33.14
2019-06-15T10:27:18.865Z,32.95
2019-06-15T10:29:47.431Z,32.98
2019-06-15T10:32:15.921Z,32.80
2019-06-15T10:34:44.368Z,32.75
2019-06-15T10:37:12.929Z,32.63
2019-06-15T10:39:41.380Z,32.97
2019-06-15T10:42:09.842Z,33.13
2019-06-15T10:44:38.881Z,33.62
2019-06-15T10:47:07.362Z,33.79
2019-06-15T10:49:35.822Z,33.69
2019-06-15T10:52:04.280Z,33.30
2019-06-15T10:54:34.244Z,33.69
2019-06-15T10:57:02.696Z,33.26
2019-06-15T10:59:31.181Z,33.36
2019-06-15T11:01:59.617Z,33.29
2019-06-15T11:04:28.058Z,33.22
2019-06-15T11:06:56.536Z,32.93
2019-06-15T11:09:25.058Z,33.21
2019-06-15T11:11:53.517Z,33.30
2019-06-15T11:14:21.980Z,33.36
2019-06-15T11:16:50.449Z,33.48
2019-06-15T11:19:18.891Z,33.40
2019-06-15T11:21:47.355Z,33.65
2019-06-15T11:24:15.849Z,33.22
2019-06-15T11:26:44.279Z,33.27
2019-06-15T11:29:12.737Z,33.13
2019-06-15T11:31:41.203Z,33.65
2019-06-15T11:34:09.730Z,33.61
2019-06-15T11:36:38.206Z,33.43
2019-06-15T11:39:07.625Z,33.73
2019-06-15T11:41:36.088Z,34.02
2019-06-15T11:44:04.996Z,34.23
2019-06-15T11:46:33.441Z,34.07
2019-06-15T11:49:01.895Z,34.23
2019-06-15T11:51:30.346Z,34.56
2019-06-15T11:53:58.821Z,34.74
2019-06-15T11:56:27.283Z,34.73
2019-06-15T11:58:56.409Z,34.74
2019-06-15T12:01:24.892Z,34.64
2019-06-15T12:03:53.329Z,34.47
2019-06-15T12:06:21.792Z,34.48
2019-06-15T12:08:50.276Z,34.40
2019-06-15T12:11:18.707Z,34.12
2019-06-15T12:13:47.151Z,34.38
2019-06-15T12:16:15.605Z,34.21
2019-06-15T12:18:44.098Z,33.94
2019-06-15T12:21:12.546Z,33.90
2019-06-15T12:23:40.989Z,33.75
2019-06-15T12:26:09.462Z,33.44
2019-06-15T12:28:38.010Z,33.50
2019-06-15T12:31:07.055Z,33.64
2019-06-15T12:33:35.589Z,33.85
2019-06-15T12:36:18.324Z,33.86
2019-06-15T12:38:34.614Z,33.97
2019-06-15T12:41:03.063Z,34.00
2019-06-15T12:43:31.744Z,34.02
2019-06-15T12:46:00.200Z,34.15
2019-06-15T12:48:28.674Z,34.28
2019-06-15T12:50:58.081Z,34.30
2019-06-15T12:53:26.549Z,34.45
2019-06-15T12:55:55.024Z,34.26
2019-06-15T12:58:23.479Z,34.44
2019-06-15T13:01:02.337Z,34.90
2019-06-15T13:03:22.400Z,34.78
2019-06-15T13:05:50.905Z,34.80
2019-06-15T13:08:19.377Z,34.27
2019-06-15T13:10:47.864Z,34.32
2019-06-15T13:13:16.327Z,33.87
2019-06-15T13:15:44.788Z,33.87
2019-06-15T13:18:13.271Z,33.76
2019-06-15T13:20:41.703Z,33.94
2019-06-15T13:23:10.172Z,33.99
2019-06-15T13:25:38.635Z,34.31
2019-06-15T13:28:07.075Z,33.99
2019-06-15T13:30:35.566Z,34.12
2019-06-15T13:33:04.005Z,33.99
2019-06-15T13:35:32.445Z,34.07
2019-06-15T13:38:00.914Z,34.49
2019-06-15T13:40:29.350Z,34.29
2019-06-15T13:42:57.822Z,34.01
2019-06-15T13:45:26.537Z,34.14
2019-06-15T13:47:55.012Z,33.81
2019-06-15T13:50:23.478Z,33.66
2019-06-15T13:52:52.004Z,33.61
2019-06-15T13:55:21.922Z,33.39
2019-06-15T13:57:50.629Z,33.35
2019-06-15T14:00:19.649Z,33.20
2019-06-15T14:02:48.234Z,32.99
2019-06-15T14:05:16.861Z,32.83
2019-06-15T14:07:45.322Z,32.66
2019-06-15T14:10:14.113Z,32.91
2019-06-15T14:12:42.762Z,32.85
2019-06-15T14:15:12.144Z,33.03
2019-06-15T14:17:40.591Z,33.13
2019-06-15T14:20:09.296Z,33.03
2019-06-15T14:22:37.754Z,33.01
2019-06-15T14:25:07.449Z,33.20
2019-06-15T14:27:35.911Z,33.11
2019-06-15T14:30:07.021Z,32.91
2019-06-15T14:32:35.518Z,33.11
2019-06-15T14:35:07.035Z,32.86
2019-06-15T14:37:35.464Z,33.05
2019-06-15T14:40:05.062Z,33.06
2019-06-15T14:42:33.506Z,33.09
2019-06-15T14:45:01.966Z,32.98
2019-06-15T14:47:30.520Z,33.03
2019-06-15T14:49:58.975Z,32.99
2019-06-15T14:52:27.415Z,33.10
2019-06-15T14:54:56.700Z,33.05
2019-06-15T14:57:27.017Z,32.94
2019-06-15T15:00:04.363Z,33.10
2019-06-15T15:02:26.308Z,33.14
2019-06-15T15:04:56.516Z,33.00
2019-06-15T15:07:26.357Z,33.20
2019-06-15T15:09:56.640Z,33.36
2019-06-15T15:12:26.664Z,33.15
2019-06-15T15:14:56.547Z,33.25
2019-06-15T15:17:26.779Z,33.49
2019-06-15T15:19:57.433Z,33.40
2019-06-15T15:22:26.802Z,33.45
2019-06-15T15:24:56.212Z,33.40
2019-06-15T15:27:26.948Z,33.00
2019-06-15T15:29:57.039Z,32.34
2019-06-15T15:32:30.493Z,32.62
2019-06-15T15:34:55.987Z,32.71
2019-06-15T15:37:26.865Z,32.81
2019-06-15T15:39:56.481Z,32.50
2019-06-15T15:42:26.749Z,32.49
2019-06-15T15:44:56.565Z,32.24
2019-06-15T15:47:27.253Z,32.56
2019-06-15T15:49:57.613Z,32.45
2019-06-15T15:52:26.981Z,32.64
2019-06-15T15:54:56.507Z,31.92
2019-06-15T15:57:26.634Z,31.92
2019-06-15T15:59:56.414Z,31.92
2019-06-15T16:02:35.404Z,31.99
2019-06-15T16:04:57.506Z,32.16
2019-06-15T16:07:27.756Z,32.08
2019-06-15T16:09:55.623Z,31.76
2019-06-15T16:12:24.133Z,31.51
2019-06-15T16:14:52.576Z,31.31
2019-06-15T16:17:21.033Z,31.77
2019-06-15T16:19:49.484Z,31.50
2019-06-15T16:22:17.925Z,31.68
2019-06-15T16:24:47.879Z,31.87
2019-06-15T16:27:16.563Z,31.88
2019-06-15T16:29:46.953Z,31.77
2019-06-15T16:32:16.098Z,32.01
2019-06-15T16:34:47.291Z,31.95
2019-06-15T16:37:16.974Z,32.04
2019-06-15T16:39:46.756Z,32.17
2019-06-15T16:42:15.444Z,32.25
2019-06-15T16:44:43.953Z,32.74
2019-06-15T16:47:12.400Z,31.43
2019-06-15T16:49:40.843Z,31.23
2019-06-15T16:52:09.344Z,31.81
2019-06-15T16:54:37.816Z,31.91
2019-06-15T16:57:06.260Z,31.54
2019-06-15T16:59:36.378Z,31.50
2019-06-15T17:02:06.432Z,32.03
2019-06-15T17:04:36.408Z,32.00
2019-06-15T17:07:07.109Z,31.13
2019-06-15T17:09:36.183Z,30.28
2019-06-15T17:12:06.574Z,29.34
2019-06-15T17:14:36.409Z,29.30
2019-06-15T17:17:05.513Z,29.04
2019-06-15T17:19:36.211Z,29.14
2019-06-15T17:22:16.656Z,29.35
2019-06-15T17:24:36.826Z,29.35
2019-06-15T17:27:06.126Z,29.29
2019-06-15T17:29:34.801Z,29.19
2019-06-15T17:32:03.242Z,29.16
2019-06-15T17:34:31.733Z,29.01
2019-06-15T17:37:00.172Z,28.88
2019-06-15T17:39:29.607Z,28.84
2019-06-15T17:41:58.480Z,28.74
2019-06-15T17:44:26.914Z,28.53
2019-06-15T17:46:56.620Z,28.56
2019-06-15T17:49:27.111Z,28.51
2019-06-15T17:51:55.349Z,28.42
2019-06-15T17:54:23.819Z,28.23
2019-06-15T17:56:52.292Z,28.32
2019-06-15T17:59:22.449Z,28.14
2019-06-15T18:01:50.972Z,28.25
2019-06-15T18:04:19.426Z,27.89
2019-06-15T18:06:47.896Z,27.77
2019-06-15T18:09:17.061Z,27.63
2019-06-15T18:11:46.414Z,27.70
2019-06-15T18:14:17.521Z,27.49
2019-06-15T18:16:47.085Z,27.37
2019-06-15T18:19:17.097Z,27.22
2019-06-15T18:21:46.681Z,27.08
2019-06-15T18:24:16.301Z,26.95
2019-06-15T18:26:47.144Z,27.10
2019-06-15T18:29:16.827Z,27.15
2019-06-15T18:31:45.389Z,27.02
2019-06-15T18:34:16.728Z,27.21
2019-06-15T18:36:44.031Z,26.85
2019-06-15T18:39:12.481Z,26.67
2019-06-15T18:41:40.908Z,26.62
2019-06-15T18:44:09.343Z,26.70
2019-06-15T18:46:37.835Z,26.74
2019-06-15T18:49:06.850Z,26.63
2019-06-15T18:51:35.395Z,26.54
2019-06-15T18:54:03.837Z,26.64
2019-06-15T18:56:32.299Z,26.70
2019-06-15T18:59:00.736Z,26.36
2019-06-15T19:01:29.209Z,26.46
2019-06-15T19:03:57.654Z,26.48
2019-06-15T19:06:26.496Z,26.36
2019-06-15T19:08:57.284Z,26.35
2019-06-15T19:11:27.384Z,26.30
2019-06-15T19:13:56.314Z,26.17
2019-06-15T19:16:24.937Z,25.98
2019-06-15T19:18:53.413Z,25.93
2019-06-15T19:21:21.842Z,25.92
2019-06-15T19:23:56.477Z,25.82
2019-06-15T19:26:26.897Z,25.78
2019-06-15T19:28:55.993Z,25.69
2019-06-15T19:31:24.535Z,25.57
2019-06-15T19:33:53.021Z,25.47
2019-06-15T19:36:21.464Z,25.50
2019-06-15T19:38:50.274Z,25.50
2019-06-15T19:41:18.782Z,25.42
2019-06-15T19:43:47.215Z,25.34
2019-06-15T19:46:17.046Z,25.13
2019-06-15T19:48:45.859Z,25.18
2019-06-15T19:51:14.380Z,25.27
2019-06-15T19:53:42.824Z,25.29
2019-06-15T19:56:11.296Z,25.14
2019-06-15T19:58:39.752Z,25.01
2019-06-15T20:01:08.302Z,25.05
2019-06-15T20:03:36.743Z,25.07
2019-06-15T20:06:06.444Z,24.94
2019-06-15T20:08:36.172Z,24.90
2019-06-15T20:11:06.964Z,24.99
2019-06-15T20:13:37.120Z,24.87
2019-06-15T20:16:07.790Z,24.80
2019-06-15T20:18:37.486Z,24.74
2019-06-15T20:21:07.294Z,24.69
2019-06-15T20:23:37.214Z,24.66
2019-06-15T20:26:06.601Z,24.56
2019-06-15T20:28:35.384Z,24.45
2019-06-15T21:32:46.602Z,23.04
2019-06-15T21:35:15.219Z,23.05
2019-06-15T21:37:46.294Z,23.18
2019-06-15T21:40:15.985Z,23.31
2019-06-15T21:42:46.748Z,23.35
2019-06-15T21:45:15.019Z,23.09
2019-06-15T21:47:43.445Z,22.90
2019-06-15T21:50:12.069Z,22.92
2019-06-15T21:52:40.538Z,22.87
2019-06-15T21:55:10.014Z,22.88
2019-06-15T21:57:38.478Z,22.79
2019-06-15T22:00:17.195Z,22.66
2019-06-15T22:02:46.917Z,22.53
2019-06-15T22:05:16.565Z,22.50
2019-06-15T22:07:47.433Z,22.53
2019-06-15T22:10:16.085Z,22.42
2019-06-15T22:12:46.054Z,22.36
2019-06-15T22:15:16.146Z,22.21
2019-06-15T22:17:47.270Z,22.22
2019-06-15T22:20:16.920Z,22.15
2019-06-15T22:22:47.051Z,22.12
2019-06-15T22:25:16.004Z,22.15
2019-06-15T22:27:46.706Z,22.15
2019-06-15T22:30:17.046Z,21.94
2019-06-15T22:32:47.316Z,21.90
2019-06-15T22:35:16.489Z,21.98
2019-06-15T22:37:46.832Z,21.88
2019-06-15T22:40:16.604Z,22.03
2019-06-15T22:42:47.081Z,22.12
2019-06-15T22:45:17.210Z,22.08
2019-06-15T22:47:46.751Z,21.92
2019-06-15T22:50:16.096Z,21.93
2019-06-15T22:52:47.135Z,21.92
2019-06-15T22:55:16.556Z,21.92
2019-06-15T22:57:46.102Z,21.71
2019-06-15T23:00:17.197Z,21.69
2019-06-15T23:02:46.172Z,21.46
2019-06-15T23:05:16.950Z,21.47
2019-06-15T23:07:47.101Z,21.59
2019-06-15T23:10:16.717Z,21.36
2019-06-15T23:12:46.408Z,21.29
2019-06-15T23:15:17.474Z,21.31
2019-06-15T23:17:46.624Z,21.27
2019-06-15T23:20:17.152Z,21.34
2019-06-15T23:22:46.817Z,21.34
2019-06-15T23:25:17.511Z,21.22
2019-06-15T23:27:46.985Z,21.21
2019-06-15T23:30:16.351Z,21.10
2019-06-15T23:32:46.815Z,20.90
2019-06-15T23:35:16.781Z,20.78
2019-06-15T23:37:46.498Z,20.49
2019-06-15T23:40:28.762Z,20.45
2019-06-15T23:42:57.210Z,20.58
2019-06-15T23:45:26.818Z,20.70
2019-06-15T23:47:57.464Z,20.61
2019-06-15T23:50:26.438Z,20.55
2019-06-15T23:52:55.054Z,20.41
2019-06-15T23:55:23.511Z,20.39
2019-06-15T23:57:51.974Z,20.42
